Latest Weather Observations for Telfer

IDW60801

Issued at 9:43 pm WST Sunday 17 February 2019 (issued every 10 minutes, with the page automatically refreshed every 10 minutes)

About weather observations | Map of weather stations | Latest weather observations for WA | Other Formats
Station Details ID: 013030 Name: TELFER AERO Lat: -21.71 Lon: 122.23 Height: 291.9 m
Data from the previous 72 hours. | See also: Recent months at Telfer
Date/Time
WST
Temp
°C
App
Temp
°C
Dew
Point
°C
Rel
Hum
%
Delta-T
°C
Wind Press
QNH
hPa
Press
MSL
hPa
Rain since
9am
mm
Dir  Spd
km/h
Gust
km/h
Spd
kts
Gust
kts
17/09:30pm 36.2 34.3 15.3 28 13.3 NW 19 24 10 13 1008.3 1005.9 0.0
17/09:00pm 37.1 34.3 13.2 24 14.8 NW 20 43 11 23 1008.0 1005.6 0.0
17/08:58pm 37.1 34.7 13.8 25 14.5 NW 19 43 10 23 1008.0 1005.6 0.0
17/08:30pm 37.5 35.3 10.7 20 16.0 NNW 13 17 7 9 1007.5 1005.0 0.0
17/08:00pm 38.0 36.3 11.1 20 16.2 NNW 11 15 6 8 1007.2 1004.7 0.0
17/07:30pm 38.8 36.7 11.0 19 16.8 NNW 13 17 7 9 1007.0 1004.5 0.0
17/07:00pm 39.0 36.9 11.2 19 16.9 NNW 13 19 7 10 1006.7 1004.2 0.0
17/06:30pm 40.2 37.5 10.5 17 17.9 N 15 20 8 11 1006.4 1003.9 0.0
17/06:00pm 41.2 38.1 10.4 16 18.6 NNE 17 24 9 13 1006.0 1003.5 0.0
17/05:30pm 42.3 41.0 9.2 14 19.7 SSW 6 11 3 6 1005.8 1003.4 0.0
17/05:00pm 42.3 39.4 8.1 13 20.1 W 13 20 7 11 1005.8 1003.4 0.0
17/04:30pm 43.3 41.1 7.7 12 20.9 E 9 13 5 7 1005.8 1003.4 0.0
17/04:00pm 43.4 40.1 6.5 11 21.3 SSW 13 19 7 10 1006.0 1003.5 0.0
17/03:30pm 43.6 40.9 9.1 13 20.6 W 13 20 7 11 1006.3 1003.8 0.0
17/03:00pm 43.7 41.1 9.2 13 20.7 W 13 22 7 12 1006.5 1004.0 0.0
17/02:30pm 43.7 41.5 9.2 13 20.7 S 11 24 6 13 1006.8 1004.3 0.0
17/02:00pm 42.4 39.4 9.3 14 19.8 NW 15 26 8 14 1007.2 1004.7 0.0
17/01:30pm 42.6 38.9 9.5 14 19.8 WNW 19 28 10 15 1007.7 1005.3 0.0
17/01:00pm 41.8 39.4 9.9 15 19.2 NNW 13 24 7 13 1008.1 1005.7 0.0
17/12:30pm 41.6 38.6 10.7 16 18.7 NW 17 30 9 16 1008.6 1006.2 0.0
17/12:00pm 41.3 37.4 9.5 15 19.0 NNW 20 33 11 18 1009.0 1006.6 0.0
17/11:30am 41.3 38.4 12.2 18 18.0 NW 19 30 10 16 1009.6 1007.1 0.0
17/11:00am 39.4 39.5 17.5 27 14.5 NW 13 26 7 14 1010.0 1007.5 0.0
17/10:30am 37.7 38.3 18.7 33 12.7 NW 13 22 7 12 1010.5 1008.0 0.0
17/10:00am 36.8 37.0 20.1 37 11.3 W 19 24 10 13 1010.8 1008.4 0.0
17/09:30am 35.1 35.7 21.4 45 9.4 WNW 20 28 11 15 1011.2 1008.8 0.0
17/09:00am 34.2 34.3 21.9 48 8.5 WNW 24 32 13 17 1011.0 1008.6 0.0
17/08:30am 32.3 32.7 22.4 56 6.8 NW 24 32 13 17 1010.9 1008.5 0.0
17/08:00am 31.0 31.7 22.9 62 5.6 NW 24 32 13 17 1010.8 1008.4 0.0
17/07:30am 29.8 30.8 23.5 69 4.4 NW 24 35 13 19 1010.7 1008.3 0.0
17/07:00am 28.9 30.6 24.0 75 3.4 NW 22 32 12 17 1010.6 1008.1 0.0
17/06:30am 28.0 30.1 23.8 78 2.9 NW 19 32 10 17 1010.3 1007.8 0.0
17/06:00am 27.7 30.1 23.7 79 2.8 NW 17 30 9 16 1010.1 1007.6 0.0
17/05:30am 28.0 30.5 23.2 75 3.3 NW 15 20 8 11 1009.6 1007.1 0.0
17/05:00am 28.1 29.7 21.4 67 4.5 NNW 15 22 8 12 1009.3 1006.9 0.0
17/04:30am 28.5 28.9 18.9 56 6.3 NW 15 20 8 11 1009.1 1006.7 0.0
17/04:00am 29.5 29.3 16.7 46 8.1 NNW 13 17 7 9 1008.7 1006.3 0.0
17/03:30am 29.9 26.7 5.2 21 13.1 NNW 11 19 6 10 1008.7 1006.3 0.0
17/03:00am 29.3 25.8 3.3 19 13.3 ENE 11 13 6 7 1008.1 1005.7 0.0
17/02:30am 31.3 29.6 1.6 15 14.9 CALM 0 0 0 0 1007.7 1005.3 0.0
17/02:00am 31.2 28.8 2.4 16 14.7 NNE 4 7 2 4 1007.7 1005.3 0.0
17/01:30am 32.3 30.7 2.4 15 15.3 CALM 0 0 0 0 1008.0 1005.6 0.0
17/01:00am 31.9 30.2 2.1 15 15.2 CALM 0 0 0 0 1008.4 1006.0 0.0
17/12:30am 32.0 29.2 2.1 15 15.2 E 6 7 3 4 1008.8 1006.4 0.0
17/12:00am 32.1 29.1 2.2 15 15.3 ESE 7 9 4 5 1009.6 1007.1 0.0
 
Date/Time
WST
Temp
°C
App
Temp
°C
Dew
Point
°C
Rel
Hum
%
Delta-T
°C
Wind Press
QNH
hPa
Press
MSL
hPa
Rain since
9am
mm
Dir  Spd
km/h
Gust
km/h
Spd
kts
Gust
kts
16/11:30pm 32.9 29.1 1.9 14 15.8 ESE 11 13 6 7 1009.8 1007.3 0.0
16/11:00pm 32.0 28.4 3.1 16 15.0 ESE 11 13 6 7 1009.9 1007.4 0.0
16/10:30pm 33.4 29.3 2.3 14 16.0 SE 13 15 7 8 1009.8 1007.3 0.0
16/10:00pm 34.6 30.7 3.2 14 16.5 SE 13 15 7 8 1009.7 1007.2 0.0
16/09:30pm 34.4 30.6 4.0 15 16.2 SE 13 13 7 7 1009.9 1007.4 0.0
16/09:00pm 34.7 31.4 4.3 15 16.3 SE 11 13 6 7 1010.1 1007.6 0.0
16/08:30pm 35.5 31.9 4.9 15 16.6 SE 13 15 7 8 1010.1 1007.6 0.0
16/08:00pm 36.4 33.1 4.6 14 17.3 SE 11 13 6 7 1009.9 1007.4 0.0
16/07:30pm 37.3 33.6 4.3 13 17.9 SE 13 15 7 8 1009.4 1007.0 0.0
16/07:00pm 38.5 35.1 4.1 12 18.7 SE 11 13 6 7 1009.0 1006.6 0.0
16/06:30pm 40.2 36.6 2.8 10 20.1 ESE 11 17 6 9 1008.5 1006.1 0.0
16/06:00pm 41.9 37.1 2.6 9 21.3 SE 17 24 9 13 1008.2 1005.8 0.0
16/05:30pm 42.6 38.6 3.1 9 21.6 SE 13 19 7 10 1008.1 1005.7 0.0
16/05:00pm 43.2 38.0 3.5 9 21.9 SE 20 35 11 19 1008.2 1005.8 0.0
16/04:30pm 43.5 39.3 3.7 9 22.1 ESE 15 28 8 15 1008.2 1005.8 0.0
16/04:00pm 43.7 38.8 3.9 9 22.2 SE 19 24 10 13 1008.2 1005.8 0.0
16/03:30pm 43.4 39.6 3.7 9 22.0 SE 13 22 7 12 1008.3 1005.9 0.0
16/03:00pm 44.1 39.6 4.2 9 22.4 ESE 17 28 9 15 1008.6 1006.2 0.0
16/02:30pm 42.8 38.4 4.7 10 21.3 E 17 28 9 15 1009.0 1006.6 0.0
16/02:00pm 43.9 40.0 5.5 10 21.9 S 15 24 8 13 1009.4 1007.0 0.0
16/01:30pm 43.0 38.6 4.9 10 21.4 E 17 30 9 16 1009.9 1007.4 0.0
16/01:00pm 42.3 37.8 4.3 10 21.1 E 17 30 9 16 1010.4 1007.9 0.0
16/12:30pm 42.0 38.5 5.5 11 20.6 NE 13 26 7 14 1010.8 1008.4 0.0
16/12:00pm 42.4 38.6 5.8 11 20.8 NE 15 26 8 14 1011.2 1008.8 0.0
16/11:30am 41.8 37.9 5.3 11 20.5 NE 15 26 8 14 1011.7 1009.3 0.0
16/11:00am 41.4 36.4 3.7 10 20.7 NE 19 32 10 17 1012.1 1009.7 0.0
16/10:30am 40.7 35.4 3.1 10 20.4 NE 20 28 11 15 1012.5 1010.1 0.0
16/10:00am 40.8 34.1 1.7 9 20.8 NNE 26 37 14 20 1012.7 1010.3 0.0
16/09:30am 40.2 33.9 1.3 9 20.5 ENE 24 35 13 19 1013.0 1010.6 0.0
16/09:00am 38.3 31.0 -0.1 9 19.6 NE 28 37 15 20 1013.3 1010.8 0.0
16/08:30am 37.3 30.6 -0.9 9 19.1 NE 24 32 13 17 1013.3 1010.8 0.0
16/08:00am 35.5 30.2 1.8 12 17.4 NE 19 30 10 16 1013.2 1010.7 0.0
16/07:30am 33.7 29.1 1.5 13 16.4 ENE 15 20 8 11 1012.8 1010.4 0.0
16/07:00am 31.8 28.6 2.9 16 14.9 ESE 9 13 5 7 1012.5 1010.1 0.0
16/06:30am 29.7 26.8 4.4 20 13.2 ESE 9 11 5 6 1012.2 1009.8 0.0
16/06:00am 28.7 24.7 2.8 19 13.1 SE 13 15 7 8 1011.8 1009.4 0.0
16/05:30am 28.2 24.5 2.4 19 12.9 SE 11 15 6 8 1011.5 1009.1 0.0
16/05:00am 28.9 25.6 2.2 18 13.3 SE 9 9 5 5 1011.2 1008.8 0.0
16/04:30am 29.1 26.5 3.1 19 13.2 E 6 7 3 4 1010.9 1008.5 0.0
16/04:00am 29.4 26.7 2.6 18 13.5 ESE 6 6 3 3 1010.8 1008.4 0.0
16/03:30am 29.6 27.7 2.8 18 13.6 ESE 2 7 1 4 1010.7 1008.3 0.0
16/03:00am 28.9 26.2 3.7 20 12.9 ESE 7 9 4 5 1010.6 1008.1 0.0
16/02:30am 29.3 25.9 4.0 20 13.1 ESE 11 13 6 7 1010.6 1008.1 0.0
16/02:00am 30.4 26.4 4.9 20 13.5 ESE 15 17 8 9 1010.6 1008.1 0.0
16/01:30am 30.6 27.0 5.1 20 13.5 SE 13 17 7 9 1010.7 1008.3 0.0
16/01:00am 30.8 26.7 4.5 19 13.8 SE 15 17 8 9 1011.0 1008.6 0.0
16/12:30am 30.6 27.0 5.1 20 13.5 SE 13 13 7 7 1011.1 1008.7 0.0
16/12:00am 31.6 28.0 5.2 19 14.1 SE 13 15 7 8 1011.3 1008.9 0.0
 
Date/Time
WST
Temp
°C
App
Temp
°C
Dew
Point
°C
Rel
Hum
%
Delta-T
°C
Wind Press
QNH
hPa
Press
MSL
hPa
Rain since
9am
mm
Dir  Spd
km/h
Gust
km/h
Spd
kts
Gust
kts
15/11:30pm 32.5 29.3 5.1 18 14.7 SE 11 13 6 7 1011.5 1009.1 0.0
15/11:00pm 32.7 29.8 4.5 17 15.0 SE 9 11 5 6 1011.7 1009.3 0.0
15/10:30pm 33.7 30.4 4.4 16 15.6 SE 11 11 6 6 1012.0 1009.6 0.0
15/10:00pm 34.2 30.9 4.8 16 15.8 SE 11 11 6 6 1012.0 1009.6 0.0
15/09:30pm 34.5 31.1 4.1 15 16.2 SE 11 13 6 7 1012.0 1009.6 0.0
15/09:00pm 35.1 32.2 4.6 15 16.4 SE 9 11 5 6 1011.9 1009.5 0.0
15/08:30pm 35.2 32.3 4.7 15 16.5 SE 9 11 5 6 1011.7 1009.3 0.0
15/08:00pm 35.7 32.3 4.1 14 17.0 SE 11 13 6 7 1011.5 1009.1 0.0
15/07:30pm 36.8 32.8 2.8 12 18.0 SE 13 13 7 7 1011.2 1008.8 0.0
15/07:00pm 38.1 34.0 2.5 11 18.9 ESE 13 13 7 7 1010.8 1008.4 0.0
15/06:30pm 40.4 35.3 2.9 10 20.2 ESE 19 26 10 14 1010.4 1007.9 0.0
15/06:00pm 41.7 36.9 2.4 9 21.2 SE 17 30 9 16 1010.1 1007.6 0.0
15/05:30pm 42.2 37.4 2.8 9 21.4 SSE 17 22 9 12 1009.7 1007.2 0.0
15/05:00pm 42.5 37.4 3.0 9 21.6 ESE 19 30 10 16 1009.7 1007.2 0.0
15/04:30pm 43.1 39.2 3.4 9 21.9 SSE 13 28 7 15 1009.4 1007.0 0.0
15/04:00pm 43.0 38.7 3.4 9 21.8 SSE 15 43 8 23 1009.4 1007.0 0.0
15/03:30pm 43.5 38.3 3.7 9 22.1 SE 20 30 11 16 1009.4 1007.0 0.0
15/03:00pm 42.8 40.3 4.7 10 21.4 ESE 7 15 4 8 1009.7 1007.2 0.0
15/02:30pm 42.6 37.8 4.6 10 21.2 SE 19 28 10 15 1009.8 1007.3 0.0
15/02:00pm 42.6 38.5 4.6 10 21.3 E 15 33 8 18 1010.3 1007.8 0.0
15/01:30pm 43.2 39.6 5.0 10 21.5 SSE 13 24 7 13 1010.6 1008.1 0.0
15/01:00pm 41.9 38.7 6.7 12 20.2 SE 13 26 7 14 1011.0 1008.6 0.0
15/12:30pm 42.6 39.2 5.9 11 20.9 NE 13 22 7 12 1011.4 1009.0 0.0
15/12:00pm 42.3 38.6 4.3 10 21.1 ESE 13 30 7 16 1011.8 1009.4 0.0
15/11:30am 41.2 36.6 3.5 10 20.6 E 17 43 9 23 1012.2 1009.8 0.0
15/11:00am 40.7 36.0 3.1 10 20.4 E 17 28 9 15 1012.8 1010.4 0.0
15/10:30am 40.3 34.8 4.2 11 19.8 ENE 22 35 12 19 1013.3 1010.8 0.0
15/10:00am 39.7 34.2 6.1 13 18.9 E 24 37 13 20 1013.7 1011.2 0.0
15/09:30am 39.5 34.3 7.1 14 18.5 E 24 35 13 19 1013.8 1011.4 0.0
15/09:00am 37.8 32.4 9.4 18 16.7 ESE 28 37 15 20 1013.8 1011.4 0.0
15/08:30am 36.6 32.2 12.8 24 14.6 ESE 28 39 15 21 1013.8 1011.4 0.0
15/08:00am 35.0 31.4 14.3 29 12.9 SE 26 33 14 18 1013.8 1011.4 0.0
15/07:30am 33.2 31.5 14.8 33 11.5 SE 17 22 9 12 1013.8 1011.4 0.0
15/07:00am 31.0 30.8 14.6 37 10.1 ESE 9 13 5 7 1013.6 1011.1 0.0
15/06:30am 29.6 29.4 14.6 40 9.2 ESE 9 13 5 7 1013.3 1010.8 0.0
15/06:00am 28.9 30.4 14.7 42 8.7 CALM 0 0 0 0 1012.9 1010.5 0.0
15/05:30am 28.8 29.1 15.0 43 8.5 ESE 7 9 4 5 1012.5 1010.1 0.0
15/05:00am 28.9 28.7 14.7 42 8.7 SE 9 11 5 6 1012.3 1009.9 0.0
15/04:30am 28.4 28.6 14.6 43 8.4 E 7 11 4 6 1011.9 1009.5 0.0
15/04:00am 28.7 28.1 14.5 42 8.7 E 11 13 6 7 1011.7 1009.3 0.0
15/03:30am 29.4 27.0 14.4 40 9.2 ESE 20 32 11 17 1011.6 1009.2 0.0
15/03:00am 31.5 30.9 14.6 36 10.5 SSE 11 13 6 7 1011.1 1008.7 0.0
15/02:30am 32.2 30.9 14.8 35 10.8 SSW 15 20 8 11 1011.2 1008.8 0.0
15/02:00am 32.1 30.0 14.7 35 10.8 SSW 19 24 10 13 1011.3 1008.9 0.0
15/01:30am 32.3 29.7 14.9 35 10.8 SSW 22 28 12 15 1011.5 1009.1 0.0
15/01:00am 32.6 29.9 14.7 34 11.1 SSW 22 32 12 17 1011.8 1009.4 0.0
15/12:30am 32.9 29.0 14.5 33 11.4 SSW 28 41 15 22 1012.1 1009.7 0.0
15/12:00am 34.6 31.3 15.0 31 12.3 SSW 26 39 14 21 1012.1 1009.7 0.0
 
Date/Time
WST
Temp
°C
App
Temp
°C
Dew
Point
°C
Rel
Hum
%
Delta-T
°C
Wind Press
QNH
hPa
Press
MSL
hPa
Rain since
9am
mm
Dir  Spd
km/h
Gust
km/h
Spd
kts
Gust
kts
14/11:30pm 35.2 32.5 15.5 30 12.5 SW 24 35 13 19 1012.0 1009.6 0.0
14/11:25pm 35.3 32.6 15.6 31 12.5 SW 24 35 13 19 1012.1 1009.7 0.0
14/11:00pm 35.3 35.5 14.6 29 13.0 WSW 7 9 4 5 1012.0 1009.6 0.0
14/10:30pm 35.6 36.0 14.8 28 13.1 SSW 6 7 3 4 1012.1 1009.7 0.0
14/10:00pm 35.7 35.8 14.4 28 13.3 SW 7 9 4 5 1012.2 1009.8 0.0

Other Formats:

Comma delimited format used in spreadsheet applications
http://www.bom.gov.au/fwo/IDW60801/IDW60801.94319.axf

JavaScript Object Notation format (JSON) in row-major order
http://www.bom.gov.au/fwo/IDW60801/IDW60801.94319.json